Overview Statistics Trail Chart Weather Telemetry Raw packets
 

This is the latest recevied weather packets stored in our database for station/object OM6ACB-6. If no packets are shown the sender has not sent any weather packets the latest 10 day(s).

<< 37 38 39 40 41 42 43 >>
Time Temp. Humidity Pressure Rain* Wind** Luminosity Snow
1788092518 28.89° C 20% 1021.9 hPa 0 mm - - -
1788091918 30° C 20% 1022.3 hPa 0 mm - - -
1788091317 29.44° C 20% 1022.2 hPa 0 mm - - -
1788090717 26.67° C 20% 1021.9 hPa 0 mm - - -
1788090117 26.67° C 20% 1022 hPa 0 mm - - -
1788089517 27.78° C 20% 1022.5 hPa 0 mm - - -
1788088916 30° C 20% 1022.7 hPa 0 mm - - -
1788088316 28.89° C 20% 1022.6 hPa 0 mm - - -
1788087716 29.44° C 20% 1022.7 hPa 0 mm - - -
1788087115 28.89° C 20% 1022.7 hPa 0 mm - - -
1788086515 29.44° C 20% 1022.9 hPa 0 mm - - -
1788085915 29.44° C 20% 1023 hPa 0 mm - - -
1788085315 30° C 20% 1023.2 hPa 0 mm - - -
1788084714 29.44° C 20% 1023.1 hPa 0 mm - - -
1788084114 28.89° C 20% 1023.1 hPa 0 mm - - -
1788083514 29.44° C 20% 1023.2 hPa 0 mm - - -
1788082913 28.33° C 20% 1023.3 hPa 0 mm - - -
1788082313 27.78° C 20% 1023.3 hPa 0 mm - - -
1788081713 26.67° C 20% 1023.2 hPa 0 mm - - -
1788081112 25.56° C 20% 1023.1 hPa 0 mm - - -
1788080512 23.33° C 21% 1022.8 hPa 0 mm - - -
1788079912 24.44° C 20% 1023.1 hPa 0 mm - - -
1788079312 23.89° C 20% 1023.1 hPa 0 mm - - -
1788078711 22.22° C 21% 1022.9 hPa 0 mm - - -
1788078111 23.89° C 21% 1023 hPa 0 mm - - -

* Rain latest hour (hover to see other rain measurements)
** Current wind speed in m/s (hover to see current wind gust speed)